sensor_id;sensor_type;location;lat;lon;timestamp;temperature;humidity
14551;DHT22;7362;50.956;4.184;2022-10-16T00:01:26;14.70;99.90
14551;DHT22;7362;50.956;4.184;2022-10-16T00:03:53;14.70;99.90
14551;DHT22;7362;50.956;4.184;2022-10-16T00:06:19;14.80;99.90
14551;DHT22;7362;50.956;4.184;2022-10-16T00:08:45;14.70;99.90
14551;DHT22;7362;50.956;4.184;2022-10-16T00:11:17;14.60;99.90
14551;DHT22;7362;50.956;4.184;2022-10-16T00:13:46;14.70;99.90
14551;DHT22;7362;50.956;4.184;2022-10-16T00:16:12;14.70;99.90
14551;DHT22;7362;50.956;4.184;2022-10-16T00:18:39;14.70;99.90
14551;DHT22;7362;50.956;4.184;2022-10-16T00:21:09;15.10;99.90
14551;DHT22;7362;50.956;4.184;2022-10-16T00:23:35;14.70;99.90
14551;DHT22;7362;50.956;4.184;2022-10-16T00:26:07;14.70;99.90
14551;DHT22;7362;50.956;4.184;2022-10-16T00:28:35;14.60;99.90
14551;DHT22;7362;50.956;4.184;2022-10-16T00:31:10;14.60;99.90
14551;DHT22;7362;50.956;4.184;2022-10-16T00:33:39;14.60;99.90
14551;DHT22;7362;50.956;4.184;2022-10-16T00:36:07;14.60;99.90
14551;DHT22;7362;50.956;4.184;2022-10-16T00:38:34;14.50;99.90
14551;DHT22;7362;50.956;4.184;2022-10-16T00:41:01;14.60;99.90
14551;DHT22;7362;50.956;4.184;2022-10-16T00:43:44;14.60;99.90
14551;DHT22;7362;50.956;4.184;2022-10-16T00:51:37;14.50;99.90
14551;DHT22;7362;50.956;4.184;2022-10-16T00:54:06;14.50;99.90
14551;DHT22;7362;50.956;4.184;2022-10-16T00:56:34;14.60;99.90
14551;DHT22;7362;50.956;4.184;2022-10-16T00:59:06;14.50;99.90
14551;DHT22;7362;50.956;4.184;2022-10-16T01:01:33;14.50;99.90
14551;DHT22;7362;50.956;4.184;2022-10-16T01:04:01;14.40;99.90
14551;DHT22;7362;50.956;4.184;2022-10-16T01:12:16;14.40;99.90
14551;DHT22;7362;50.956;4.184;2022-10-16T01:17:43;14.30;99.90
14551;DHT22;7362;50.956;4.184;2022-10-16T01:20:30;14.40;99.90
14551;DHT22;7362;50.956;4.184;2022-10-16T01:26:06;14.30;99.90
14551;DHT22;7362;50.956;4.184;2022-10-16T01:31:44;14.40;99.90
14551;DHT22;7362;50.956;4.184;2022-10-16T01:34:31;14.40;99.90
14551;DHT22;7362;50.956;4.184;2022-10-16T01:37:25;14.30;99.90
14551;DHT22;7362;50.956;4.184;2022-10-16T01:39:56;14.30;99.90
14551;DHT22;7362;50.956;4.184;2022-10-16T01:42:29;14.40;99.90
14551;DHT22;7362;50.956;4.184;2022-10-16T01:44:57;14.30;99.90
14551;DHT22;7362;50.956;4.184;2022-10-16T01:47:26;14.20;99.90
14551;DHT22;7362;50.956;4.184;2022-10-16T01:49:53;14.20;99.90
14551;DHT22;7362;50.956;4.184;2022-10-16T01:52:23;14.20;99.90
14551;DHT22;7362;50.956;4.184;2022-10-16T01:54:54;14.20;99.90
14551;DHT22;7362;50.956;4.184;2022-10-16T01:57:23;14.20;99.90
14551;DHT22;7362;50.956;4.184;2022-10-16T01:59:53;14.20;99.90
14551;DHT22;7362;50.956;4.184;2022-10-16T02:02:21;14.20;99.90
14551;DHT22;7362;50.956;4.184;2022-10-16T02:05:16;14.20;99.90
14551;DHT22;7362;50.956;4.184;2022-10-16T02:07:44;14.20;99.90
14551;DHT22;7362;50.956;4.184;2022-10-16T02:10:12;14.30;99.90
14551;DHT22;7362;50.956;4.184;2022-10-16T02:12:41;14.10;99.90
14551;DHT22;7362;50.956;4.184;2022-10-16T02:15:08;14.10;99.90
14551;DHT22;7362;50.956;4.184;2022-10-16T02:17:34;14.20;99.90
14551;DHT22;7362;50.956;4.184;2022-10-16T02:20:03;14.20;99.90
14551;DHT22;7362;50.956;4.184;2022-10-16T02:22:38;14.20;99.90
14551;DHT22;7362;50.956;4.184;2022-10-16T02:27:50;14.10;99.90
14551;DHT22;7362;50.956;4.184;2022-10-16T02:30:39;14.20;99.90
14551;DHT22;7362;50.956;4.184;2022-10-16T02:33:10;14.20;99.90
14551;DHT22;7362;50.956;4.184;2022-10-16T02:35:37;14.10;99.90
14551;DHT22;7362;50.956;4.184;2022-10-16T02:38:04;14.10;99.90
14551;DHT22;7362;50.956;4.184;2022-10-16T02:40:31;14.10;99.90
14551;DHT22;7362;50.956;4.184;2022-10-16T02:42:57;14.10;99.90
14551;DHT22;7362;50.956;4.184;2022-10-16T02:45:23;14.20;99.90
14551;DHT22;7362;50.956;4.184;2022-10-16T02:47:49;14.10;99.90
14551;DHT22;7362;50.956;4.184;2022-10-16T02:50:15;14.10;99.90
14551;DHT22;7362;50.956;4.184;2022-10-16T02:52:42;14.10;99.90
14551;DHT22;7362;50.956;4.184;2022-10-16T02:55:08;14.10;99.90
14551;DHT22;7362;50.956;4.184;2022-10-16T02:57:33;14.10;99.90
14551;DHT22;7362;50.956;4.184;2022-10-16T03:00:00;14.10;99.90
14551;DHT22;7362;50.956;4.184;2022-10-16T03:02:26;14.10;99.90
14551;DHT22;7362;50.956;4.184;2022-10-16T03:04:52;14.10;99.90
14551;DHT22;7362;50.956;4.184;2022-10-16T03:07:20;14.10;99.90
14551;DHT22;7362;50.956;4.184;2022-10-16T03:09:46;14.10;99.90
14551;DHT22;7362;50.956;4.184;2022-10-16T03:12:11;14.10;99.90
14551;DHT22;7362;50.956;4.184;2022-10-16T03:14:37;14.10;99.90
14551;DHT22;7362;50.956;4.184;2022-10-16T03:17:06;14.10;99.90
14551;DHT22;7362;50.956;4.184;2022-10-16T03:19:34;14.10;99.90
14551;DHT22;7362;50.956;4.184;2022-10-16T03:22:02;14.10;99.90
14551;DHT22;7362;50.956;4.184;2022-10-16T03:24:30;14.10;99.90
14551;DHT22;7362;50.956;4.184;2022-10-16T03:26:55;14.10;99.90
14551;DHT22;7362;50.956;4.184;2022-10-16T03:29:22;14.10;99.90
14551;DHT22;7362;50.956;4.184;2022-10-16T03:31:52;14.10;99.90
14551;DHT22;7362;50.956;4.184;2022-10-16T03:34:17;14.10;99.90
14551;DHT22;7362;50.956;4.184;2022-10-16T03:36:47;14.10;99.90
14551;DHT22;7362;50.956;4.184;2022-10-16T03:39:23;14.00;99.90
14551;DHT22;7362;50.956;4.184;2022-10-16T03:41:59;14.10;99.90
14551;DHT22;7362;50.956;4.184;2022-10-16T03:44:26;14.10;99.90
14551;DHT22;7362;50.956;4.184;2022-10-16T03:46:51;14.10;99.90
14551;DHT22;7362;50.956;4.184;2022-10-16T03:49:17;14.00;99.90
14551;DHT22;7362;50.956;4.184;2022-10-16T03:51:42;14.10;99.90
14551;DHT22;7362;50.956;4.184;2022-10-16T03:54:10;14.10;99.90
14551;DHT22;7362;50.956;4.184;2022-10-16T03:56:36;14.10;99.90
14551;DHT22;7362;50.956;4.184;2022-10-16T03:59:03;14.10;99.90
14551;DHT22;7362;50.956;4.184;2022-10-16T04:01:30;14.10;99.90
14551;DHT22;7362;50.956;4.184;2022-10-16T04:03:56;14.10;99.90
14551;DHT22;7362;50.956;4.184;2022-10-16T04:06:23;14.00;99.90
14551;DHT22;7362;50.956;4.184;2022-10-16T04:08:53;14.00;99.90
14551;DHT22;7362;50.956;4.184;2022-10-16T04:11:19;14.00;99.90
14551;DHT22;7362;50.956;4.184;2022-10-16T04:13:46;14.10;99.90
14551;DHT22;7362;50.956;4.184;2022-10-16T04:16:13;14.10;99.90
14551;DHT22;7362;50.956;4.184;2022-10-16T04:18:39;14.10;99.90
14551;DHT22;7362;50.956;4.184;2022-10-16T04:21:06;14.10;99.90
14551;DHT22;7362;50.956;4.184;2022-10-16T04:23:32;14.10;99.90
14551;DHT22;7362;50.956;4.184;2022-10-16T04:25:58;14.10;99.90
14551;DHT22;7362;50.956;4.184;2022-10-16T04:28:24;14.10;99.90
14551;DHT22;7362;50.956;4.184;2022-10-16T04:30:56;14.00;99.90
14551;DHT22;7362;50.956;4.184;2022-10-16T04:33:22;14.00;99.90
14551;DHT22;7362;50.956;4.184;2022-10-16T04:35:47;14.10;99.90
14551;DHT22;7362;50.956;4.184;2022-10-16T04:38:14;14.00;99.90
14551;DHT22;7362;50.956;4.184;2022-10-16T04:40:42;14.10;99.90
14551;DHT22;7362;50.956;4.184;2022-10-16T04:43:10;14.00;99.90
14551;DHT22;7362;50.956;4.184;2022-10-16T04:45:36;14.00;99.90
14551;DHT22;7362;50.956;4.184;2022-10-16T04:48:01;14.00;99.90
14551;DHT22;7362;50.956;4.184;2022-10-16T04:50:27;14.00;99.90
14551;DHT22;7362;50.956;4.184;2022-10-16T04:52:55;14.00;99.90
14551;DHT22;7362;50.956;4.184;2022-10-16T04:55:24;14.00;99.90
14551;DHT22;7362;50.956;4.184;2022-10-16T04:57:51;14.00;99.90
14551;DHT22;7362;50.956;4.184;2022-10-16T05:00:17;13.90;99.90
14551;DHT22;7362;50.956;4.184;2022-10-16T05:02:43;13.90;99.90
14551;DHT22;7362;50.956;4.184;2022-10-16T05:05:10;13.90;99.90
14551;DHT22;7362;50.956;4.184;2022-10-16T05:07:36;13.90;99.90
14551;DHT22;7362;50.956;4.184;2022-10-16T05:10:04;13.90;99.90
14551;DHT22;7362;50.956;4.184;2022-10-16T05:12:38;13.90;99.90
14551;DHT22;7362;50.956;4.184;2022-10-16T05:15:04;13.90;99.90
14551;DHT22;7362;50.956;4.184;2022-10-16T05:17:30;13.90;99.90
14551;DHT22;7362;50.956;4.184;2022-10-16T05:19:56;13.90;99.90
14551;DHT22;7362;50.956;4.184;2022-10-16T05:22:21;13.90;99.90
14551;DHT22;7362;50.956;4.184;2022-10-16T05:24:47;13.90;99.90
14551;DHT22;7362;50.956;4.184;2022-10-16T05:27:13;13.90;99.90
14551;DHT22;7362;50.956;4.184;2022-10-16T05:29:48;13.90;99.90
14551;DHT22;7362;50.956;4.184;2022-10-16T05:32:16;13.80;99.90
14551;DHT22;7362;50.956;4.184;2022-10-16T05:34:42;13.80;99.90
14551;DHT22;7362;50.956;4.184;2022-10-16T05:37:07;13.80;99.90
14551;DHT22;7362;50.956;4.184;2022-10-16T05:39:33;13.70;99.90
14551;DHT22;7362;50.956;4.184;2022-10-16T05:41:59;13.80;99.90
14551;DHT22;7362;50.956;4.184;2022-10-16T05:44:26;13.80;99.90
14551;DHT22;7362;50.956;4.184;2022-10-16T05:46:53;13.70;99.90
14551;DHT22;7362;50.956;4.184;2022-10-16T05:49:19;13.70;99.90
14551;DHT22;7362;50.956;4.184;2022-10-16T05:51:46;13.70;99.90
14551;DHT22;7362;50.956;4.184;2022-10-16T05:54:12;13.70;99.90
14551;DHT22;7362;50.956;4.184;2022-10-16T05:56:39;13.70;99.90
14551;DHT22;7362;50.956;4.184;2022-10-16T05:59:05;13.70;99.90
14551;DHT22;7362;50.956;4.184;2022-10-16T06:01:32;13.80;99.90
14551;DHT22;7362;50.956;4.184;2022-10-16T06:04:03;13.70;99.90
14551;DHT22;7362;50.956;4.184;2022-10-16T06:06:29;13.70;99.90
14551;DHT22;7362;50.956;4.184;2022-10-16T06:08:56;13.70;99.90
14551;DHT22;7362;50.956;4.184;2022-10-16T06:11:25;13.70;99.90
14551;DHT22;7362;50.956;4.184;2022-10-16T06:13:57;13.80;99.90
14551;DHT22;7362;50.956;4.184;2022-10-16T06:16:25;13.70;99.90
14551;DHT22;7362;50.956;4.184;2022-10-16T06:18:53;13.80;99.90
14551;DHT22;7362;50.956;4.184;2022-10-16T06:21:21;13.80;99.90
14551;DHT22;7362;50.956;4.184;2022-10-16T06:23:48;13.80;99.90
14551;DHT22;7362;50.956;4.184;2022-10-16T06:26:16;13.90;99.90
14551;DHT22;7362;50.956;4.184;2022-10-16T06:28:42;13.80;99.90
14551;DHT22;7362;50.956;4.184;2022-10-16T06:31:11;13.90;99.90
14551;DHT22;7362;50.956;4.184;2022-10-16T06:33:38;13.90;99.90
14551;DHT22;7362;50.956;4.184;2022-10-16T06:36:10;13.90;99.90
14551;DHT22;7362;50.956;4.184;2022-10-16T06:38:37;13.90;99.90
14551;DHT22;7362;50.956;4.184;2022-10-16T06:41:05;13.90;99.90
14551;DHT22;7362;50.956;4.184;2022-10-16T06:43:32;13.90;99.90
14551;DHT22;7362;50.956;4.184;2022-10-16T06:46:09;13.90;99.90
14551;DHT22;7362;50.956;4.184;2022-10-16T06:48:37;14.00;99.90
14551;DHT22;7362;50.956;4.184;2022-10-16T06:51:13;14.10;99.90
14551;DHT22;7362;50.956;4.184;2022-10-16T06:53:41;14.10;99.90
14551;DHT22;7362;50.956;4.184;2022-10-16T06:56:22;14.10;99.90
14551;DHT22;7362;50.956;4.184;2022-10-16T06:58:49;14.20;99.90
14551;DHT22;7362;50.956;4.184;2022-10-16T07:01:17;14.20;99.90
14551;DHT22;7362;50.956;4.184;2022-10-16T07:03:45;14.20;99.90
14551;DHT22;7362;50.956;4.184;2022-10-16T07:06:16;14.20;99.90
14551;DHT22;7362;50.956;4.184;2022-10-16T07:08:44;14.20;99.90
14551;DHT22;7362;50.956;4.184;2022-10-16T07:11:15;14.30;99.90
14551;DHT22;7362;50.956;4.184;2022-10-16T07:13:42;14.20;99.90
14551;DHT22;7362;50.956;4.184;2022-10-16T07:16:19;14.20;99.90
14551;DHT22;7362;50.956;4.184;2022-10-16T07:18:46;14.30;99.90
14551;DHT22;7362;50.956;4.184;2022-10-16T07:21:16;14.20;99.90
14551;DHT22;7362;50.956;4.184;2022-10-16T07:23:42;14.20;99.90
14551;DHT22;7362;50.956;4.184;2022-10-16T07:26:10;14.10;99.90
14551;DHT22;7362;50.956;4.184;2022-10-16T07:28:35;14.20;99.90
14551;DHT22;7362;50.956;4.184;2022-10-16T07:31:06;14.30;99.90
14551;DHT22;7362;50.956;4.184;2022-10-16T07:33:33;14.30;99.90
14551;DHT22;7362;50.956;4.184;2022-10-16T07:35:59;14.30;99.90
14551;DHT22;7362;50.956;4.184;2022-10-16T07:38:25;14.30;99.90
14551;DHT22;7362;50.956;4.184;2022-10-16T07:41:05;14.30;99.90
14551;DHT22;7362;50.956;4.184;2022-10-16T07:43:32;14.30;99.90
14551;DHT22;7362;50.956;4.184;2022-10-16T07:45:59;14.30;99.90
14551;DHT22;7362;50.956;4.184;2022-10-16T07:48:30;14.40;99.90
14551;DHT22;7362;50.956;4.184;2022-10-16T07:51:05;14.40;99.90
14551;DHT22;7362;50.956;4.184;2022-10-16T07:53:31;14.40;99.90
14551;DHT22;7362;50.956;4.184;2022-10-16T07:56:02;14.50;99.90
14551;DHT22;7362;50.956;4.184;2022-10-16T07:58:30;14.50;99.90
14551;DHT22;7362;50.956;4.184;2022-10-16T08:00:57;14.60;99.90
14551;DHT22;7362;50.956;4.184;2022-10-16T08:03:24;14.60;99.90
14551;DHT22;7362;50.956;4.184;2022-10-16T08:05:52;14.70;99.90
14551;DHT22;7362;50.956;4.184;2022-10-16T08:08:18;14.70;99.90
14551;DHT22;7362;50.956;4.184;2022-10-16T08:10:44;14.70;99.90
14551;DHT22;7362;50.956;4.184;2022-10-16T08:13:10;14.70;99.90
14551;DHT22;7362;50.956;4.184;2022-10-16T08:15:37;14.80;99.90
14551;DHT22;7362;50.956;4.184;2022-10-16T08:18:04;14.80;99.90
14551;DHT22;7362;50.956;4.184;2022-10-16T08:20:32;14.80;99.90
14551;DHT22;7362;50.956;4.184;2022-10-16T08:23:02;14.80;99.90
14551;DHT22;7362;50.956;4.184;2022-10-16T08:25:28;14.90;99.90
14551;DHT22;7362;50.956;4.184;2022-10-16T08:27:54;14.90;99.90
14551;DHT22;7362;50.956;4.184;2022-10-16T08:30:21;15.00;99.90
14551;DHT22;7362;50.956;4.184;2022-10-16T08:32:47;15.00;99.90
14551;DHT22;7362;50.956;4.184;2022-10-16T08:35:14;15.00;99.90
14551;DHT22;7362;50.956;4.184;2022-10-16T08:37:42;15.00;99.90
14551;DHT22;7362;50.956;4.184;2022-10-16T08:40:22;15.10;99.90
14551;DHT22;7362;50.956;4.184;2022-10-16T08:42:56;15.20;99.90
14551;DHT22;7362;50.956;4.184;2022-10-16T08:48:48;15.30;99.90
14551;DHT22;7362;50.956;4.184;2022-10-16T08:51:29;15.30;99.90
14551;DHT22;7362;50.956;4.184;2022-10-16T08:53:57;15.30;99.90
14551;DHT22;7362;50.956;4.184;2022-10-16T08:56:26;15.40;99.90
14551;DHT22;7362;50.956;4.184;2022-10-16T08:58:54;15.40;99.90
14551;DHT22;7362;50.956;4.184;2022-10-16T09:01:24;15.50;99.90
14551;DHT22;7362;50.956;4.184;2022-10-16T09:12:19;15.60;99.90
14551;DHT22;7362;50.956;4.184;2022-10-16T09:15:12;15.60;99.90
14551;DHT22;7362;50.956;4.184;2022-10-16T09:20:53;15.70;99.90
14551;DHT22;7362;50.956;4.184;2022-10-16T09:23:30;15.70;99.90
14551;DHT22;7362;50.956;4.184;2022-10-16T09:26:00;15.70;99.90
14551;DHT22;7362;50.956;4.184;2022-10-16T09:28:27;15.80;99.90
14551;DHT22;7362;50.956;4.184;2022-10-16T09:30:55;15.80;99.90
14551;DHT22;7362;50.956;4.184;2022-10-16T09:33:33;15.80;99.90
14551;DHT22;7362;50.956;4.184;2022-10-16T09:36:03;15.90;99.90
14551;DHT22;7362;50.956;4.184;2022-10-16T09:38:34;16.00;99.90
14551;DHT22;7362;50.956;4.184;2022-10-16T09:43:57;16.10;99.90
14551;DHT22;7362;50.956;4.184;2022-10-16T09:46:31;16.20;99.90
14551;DHT22;7362;50.956;4.184;2022-10-16T09:49:16;16.30;99.90
14551;DHT22;7362;50.956;4.184;2022-10-16T09:51:46;16.40;99.90
14551;DHT22;7362;50.956;4.184;2022-10-16T09:54:21;16.50;99.90
14551;DHT22;7362;50.956;4.184;2022-10-16T09:56:50;16.60;99.90
14551;DHT22;7362;50.956;4.184;2022-10-16T09:59:23;16.70;99.90
14551;DHT22;7362;50.956;4.184;2022-10-16T10:01:55;16.70;99.90
14551;DHT22;7362;50.956;4.184;2022-10-16T10:04:41;16.60;99.90
14551;DHT22;7362;50.956;4.184;2022-10-16T10:07:32;16.60;99.90
14551;DHT22;7362;50.956;4.184;2022-10-16T10:10:04;16.70;99.90
14551;DHT22;7362;50.956;4.184;2022-10-16T10:12:33;16.80;99.90
14551;DHT22;7362;50.956;4.184;2022-10-16T10:15:10;16.90;99.90
14551;DHT22;7362;50.956;4.184;2022-10-16T10:17:48;17.00;99.90
14551;DHT22;7362;50.956;4.184;2022-10-16T10:20:30;17.10;99.90
14551;DHT22;7362;50.956;4.184;2022-10-16T10:23:23;17.20;99.90
14551;DHT22;7362;50.956;4.184;2022-10-16T10:26:19;17.40;99.90
14551;DHT22;7362;50.956;4.184;2022-10-16T10:29:11;17.50;99.90
14551;DHT22;7362;50.956;4.184;2022-10-16T10:32:00;17.50;99.90
14551;DHT22;7362;50.956;4.184;2022-10-16T10:35:07;17.50;99.90
14551;DHT22;7362;50.956;4.184;2022-10-16T10:40:38;17.90;99.90
14551;DHT22;7362;50.956;4.184;2022-10-16T10:43:27;17.80;99.90
14551;DHT22;7362;50.956;4.184;2022-10-16T10:46:12;17.80;99.90
14551;DHT22;7362;50.956;4.184;2022-10-16T10:52:05;17.60;99.90
14551;DHT22;7362;50.956;4.184;2022-10-16T11:01:30;17.90;99.90
14551;DHT22;7362;50.956;4.184;2022-10-16T11:06:16;17.60;99.90
14551;DHT22;7362;50.956;4.184;2022-10-16T11:11:45;17.70;99.90
14551;DHT22;7362;50.956;4.184;2022-10-16T11:14:33;17.70;99.90
14551;DHT22;7362;50.956;4.184;2022-10-16T11:17:10;17.70;99.90
14551;DHT22;7362;50.956;4.184;2022-10-16T11:19:49;17.70;99.90
14551;DHT22;7362;50.956;4.184;2022-10-16T11:22:32;18.10;99.90
14551;DHT22;7362;50.956;4.184;2022-10-16T11:25:33;18.40;99.90
14551;DHT22;7362;50.956;4.184;2022-10-16T11:28:25;18.30;99.90
14551;DHT22;7362;50.956;4.184;2022-10-16T11:31:13;18.10;99.90
14551;DHT22;7362;50.956;4.184;2022-10-16T11:37:16;18.10;99.90
14551;DHT22;7362;50.956;4.184;2022-10-16T11:39:44;18.10;99.90
14551;DHT22;7362;50.956;4.184;2022-10-16T11:42:18;18.30;99.90
14551;DHT22;7362;50.956;4.184;2022-10-16T11:47:35;18.80;99.90
14551;DHT22;7362;50.956;4.184;2022-10-16T11:50:25;18.90;99.90
14551;DHT22;7362;50.956;4.184;2022-10-16T11:56:07;18.70;99.90
14551;DHT22;7362;50.956;4.184;2022-10-16T12:01:42;18.70;99.90
14551;DHT22;7362;50.956;4.184;2022-10-16T12:04:33;18.70;99.90
14551;DHT22;7362;50.956;4.184;2022-10-16T12:07:36;19.00;99.90
14551;DHT22;7362;50.956;4.184;2022-10-16T12:10:44;19.20;99.90
14551;DHT22;7362;50.956;4.184;2022-10-16T12:13:39;19.40;99.90
14551;DHT22;7362;50.956;4.184;2022-10-16T12:16:27;19.50;99.90
14551;DHT22;7362;50.956;4.184;2022-10-16T12:19:13;19.80;99.90
14551;DHT22;7362;50.956;4.184;2022-10-16T12:21:43;20.00;99.90
14551;DHT22;7362;50.956;4.184;2022-10-16T12:24:45;19.90;99.90
14551;DHT22;7362;50.956;4.184;2022-10-16T12:27:34;20.00;99.90
14551;DHT22;7362;50.956;4.184;2022-10-16T12:30:05;19.80;99.90
14551;DHT22;7362;50.956;4.184;2022-10-16T12:32:52;19.80;99.90
14551;DHT22;7362;50.956;4.184;2022-10-16T12:35:26;19.80;99.90
14551;DHT22;7362;50.956;4.184;2022-10-16T12:38:14;19.80;99.90
14551;DHT22;7362;50.956;4.184;2022-10-16T12:40:46;19.80;99.90
14551;DHT22;7362;50.956;4.184;2022-10-16T12:46:23;19.60;99.90
14551;DHT22;7362;50.956;4.184;2022-10-16T12:48:52;19.50;99.90
14551;DHT22;7362;50.956;4.184;2022-10-16T13:03:02;19.30;99.90
14551;DHT22;7362;50.956;4.184;2022-10-16T13:11:37;19.70;99.90
14551;DHT22;7362;50.956;4.184;2022-10-16T13:14:41;19.80;99.90
14551;DHT22;7362;50.956;4.184;2022-10-16T13:17:34;19.70;99.90
14551;DHT22;7362;50.956;4.184;2022-10-16T13:23:23;19.80;99.90
14551;DHT22;7362;50.956;4.184;2022-10-16T13:26:46;19.90;99.90
14551;DHT22;7362;50.956;4.184;2022-10-16T13:29:00;19.70;99.90
14551;DHT22;7362;50.956;4.184;2022-10-16T13:31:33;19.60;99.90
14551;DHT22;7362;50.956;4.184;2022-10-16T13:34:18;19.90;99.90
14551;DHT22;7362;50.956;4.184;2022-10-16T13:36:50;20.10;99.90
14551;DHT22;7362;50.956;4.184;2022-10-16T13:39:32;20.20;99.90
14551;DHT22;7362;50.956;4.184;2022-10-16T13:42:27;20.10;99.90
14551;DHT22;7362;50.956;4.184;2022-10-16T13:45:26;20.10;99.90
14551;DHT22;7362;50.956;4.184;2022-10-16T13:48:09;20.10;99.90
14551;DHT22;7362;50.956;4.184;2022-10-16T13:50:44;20.20;99.90
14551;DHT22;7362;50.956;4.184;2022-10-16T13:53:41;20.20;99.90
14551;DHT22;7362;50.956;4.184;2022-10-16T13:56:19;20.10;99.90
14551;DHT22;7362;50.956;4.184;2022-10-16T13:58:45;20.00;99.90
14551;DHT22;7362;50.956;4.184;2022-10-16T14:01:22;19.60;99.90
14551;DHT22;7362;50.956;4.184;2022-10-16T14:03:49;19.50;99.90
14551;DHT22;7362;50.956;4.184;2022-10-16T14:06:18;19.60;99.90
14551;DHT22;7362;50.956;4.184;2022-10-16T14:08:50;19.60;99.90
14551;DHT22;7362;50.956;4.184;2022-10-16T14:11:23;19.70;99.90
14551;DHT22;7362;50.956;4.184;2022-10-16T14:14:00;19.70;99.90
14551;DHT22;7362;50.956;4.184;2022-10-16T14:16:30;19.60;99.90
14551;DHT22;7362;50.956;4.184;2022-10-16T14:19:05;19.50;99.90
14551;DHT22;7362;50.956;4.184;2022-10-16T14:21:36;19.50;99.90
14551;DHT22;7362;50.956;4.184;2022-10-16T14:27:35;19.40;99.90
14551;DHT22;7362;50.956;4.184;2022-10-16T14:30:20;19.50;99.90
14551;DHT22;7362;50.956;4.184;2022-10-16T14:38:39;19.80;99.90
14551;DHT22;7362;50.956;4.184;2022-10-16T14:41:08;19.80;99.90
14551;DHT22;7362;50.956;4.184;2022-10-16T14:43:40;19.90;99.90
14551;DHT22;7362;50.956;4.184;2022-10-16T14:46:13;19.90;99.90
14551;DHT22;7362;50.956;4.184;2022-10-16T14:48:48;19.90;99.90
14551;DHT22;7362;50.956;4.184;2022-10-16T14:51:15;20.10;99.90
14551;DHT22;7362;50.956;4.184;2022-10-16T14:53:41;20.00;99.90
14551;DHT22;7362;50.956;4.184;2022-10-16T14:56:29;20.00;99.90
14551;DHT22;7362;50.956;4.184;2022-10-16T14:58:55;20.10;99.90
14551;DHT22;7362;50.956;4.184;2022-10-16T15:01:38;20.00;99.90
14551;DHT22;7362;50.956;4.184;2022-10-16T15:04:24;20.10;99.90
14551;DHT22;7362;50.956;4.184;2022-10-16T15:07:13;20.00;99.90
14551;DHT22;7362;50.956;4.184;2022-10-16T15:09:40;20.00;99.90
14551;DHT22;7362;50.956;4.184;2022-10-16T15:12:07;19.90;99.90
14551;DHT22;7362;50.956;4.184;2022-10-16T15:14:32;20.00;99.90
14551;DHT22;7362;50.956;4.184;2022-10-16T15:17:03;20.00;99.90
14551;DHT22;7362;50.956;4.184;2022-10-16T15:19:29;19.90;99.90
14551;DHT22;7362;50.956;4.184;2022-10-16T15:22:01;19.90;99.90
14551;DHT22;7362;50.956;4.184;2022-10-16T15:24:32;20.00;99.90
14551;DHT22;7362;50.956;4.184;2022-10-16T15:26:59;20.00;99.90
14551;DHT22;7362;50.956;4.184;2022-10-16T15:29:30;20.00;99.90
14551;DHT22;7362;50.956;4.184;2022-10-16T15:32:12;19.90;99.90
14551;DHT22;7362;50.956;4.184;2022-10-16T15:34:46;19.80;99.90
14551;DHT22;7362;50.956;4.184;2022-10-16T15:37:17;19.70;99.90
14551;DHT22;7362;50.956;4.184;2022-10-16T15:39:51;19.70;99.90
14551;DHT22;7362;50.956;4.184;2022-10-16T15:42:18;19.70;99.90
14551;DHT22;7362;50.956;4.184;2022-10-16T15:44:45;19.70;99.90
14551;DHT22;7362;50.956;4.184;2022-10-16T15:47:10;19.70;99.90
14551;DHT22;7362;50.956;4.184;2022-10-16T15:49:36;19.70;99.90
14551;DHT22;7362;50.956;4.184;2022-10-16T15:52:01;19.70;99.90
14551;DHT22;7362;50.956;4.184;2022-10-16T15:54:29;19.60;99.90
14551;DHT22;7362;50.956;4.184;2022-10-16T15:56:55;19.60;99.90
14551;DHT22;7362;50.956;4.184;2022-10-16T15:59:20;19.60;99.90
14551;DHT22;7362;50.956;4.184;2022-10-16T16:01:46;19.60;99.90
14551;DHT22;7362;50.956;4.184;2022-10-16T16:04:12;19.60;99.90
14551;DHT22;7362;50.956;4.184;2022-10-16T16:06:38;19.50;99.90
14551;DHT22;7362;50.956;4.184;2022-10-16T16:09:14;19.40;99.90
14551;DHT22;7362;50.956;4.184;2022-10-16T16:11:41;19.30;99.90
14551;DHT22;7362;50.956;4.184;2022-10-16T16:14:13;19.20;99.90
14551;DHT22;7362;50.956;4.184;2022-10-16T16:16:39;19.30;99.90
14551;DHT22;7362;50.956;4.184;2022-10-16T16:19:12;19.20;99.90
14551;DHT22;7362;50.956;4.184;2022-10-16T16:21:38;19.30;99.90
14551;DHT22;7362;50.956;4.184;2022-10-16T16:24:04;19.10;99.90
14551;DHT22;7362;50.956;4.184;2022-10-16T16:26:34;19.10;99.90
14551;DHT22;7362;50.956;4.184;2022-10-16T16:29:04;19.10;99.90
14551;DHT22;7362;50.956;4.184;2022-10-16T16:31:48;19.20;99.90
14551;DHT22;7362;50.956;4.184;2022-10-16T16:34:17;19.20;99.90
14551;DHT22;7362;50.956;4.184;2022-10-16T16:36:44;19.20;99.90
14551;DHT22;7362;50.956;4.184;2022-10-16T16:39:10;19.00;99.90
14551;DHT22;7362;50.956;4.184;2022-10-16T16:41:38;19.10;99.90
14551;DHT22;7362;50.956;4.184;2022-10-16T16:44:12;19.10;99.90
14551;DHT22;7362;50.956;4.184;2022-10-16T16:46:49;19.00;99.90
14551;DHT22;7362;50.956;4.184;2022-10-16T16:49:21;19.00;99.90
14551;DHT22;7362;50.956;4.184;2022-10-16T16:51:51;18.90;99.90
14551;DHT22;7362;50.956;4.184;2022-10-16T16:54:24;18.90;99.90
14551;DHT22;7362;50.956;4.184;2022-10-16T16:56:51;18.80;99.90
14551;DHT22;7362;50.956;4.184;2022-10-16T16:59:20;18.80;99.90
14551;DHT22;7362;50.956;4.184;2022-10-16T17:01:47;18.80;99.90
14551;DHT22;7362;50.956;4.184;2022-10-16T17:04:13;18.50;99.90
14551;DHT22;7362;50.956;4.184;2022-10-16T17:06:41;18.30;99.90
14551;DHT22;7362;50.956;4.184;2022-10-16T17:09:07;18.00;99.90
14551;DHT22;7362;50.956;4.184;2022-10-16T17:11:37;18.10;99.90
14551;DHT22;7362;50.956;4.184;2022-10-16T17:14:04;17.90;99.90
14551;DHT22;7362;50.956;4.184;2022-10-16T17:16:37;17.90;99.90
14551;DHT22;7362;50.956;4.184;2022-10-16T17:19:09;17.90;99.90
14551;DHT22;7362;50.956;4.184;2022-10-16T17:21:36;17.70;99.90
14551;DHT22;7362;50.956;4.184;2022-10-16T17:24:05;17.60;99.90
14551;DHT22;7362;50.956;4.184;2022-10-16T17:26:33;17.60;99.90
14551;DHT22;7362;50.956;4.184;2022-10-16T17:29:04;17.50;99.90
14551;DHT22;7362;50.956;4.184;2022-10-16T17:31:33;17.50;99.90
14551;DHT22;7362;50.956;4.184;2022-10-16T17:34:03;17.30;99.90
14551;DHT22;7362;50.956;4.184;2022-10-16T17:36:32;17.10;99.90
14551;DHT22;7362;50.956;4.184;2022-10-16T17:39:06;17.10;99.90
14551;DHT22;7362;50.956;4.184;2022-10-16T17:41:46;17.00;99.90
14551;DHT22;7362;50.956;4.184;2022-10-16T17:44:16;17.00;99.90
14551;DHT22;7362;50.956;4.184;2022-10-16T17:46:46;17.00;99.90
14551;DHT22;7362;50.956;4.184;2022-10-16T17:49:12;17.00;99.90
14551;DHT22;7362;50.956;4.184;2022-10-16T17:51:38;16.90;99.90
14551;DHT22;7362;50.956;4.184;2022-10-16T17:54:04;17.00;99.90
14551;DHT22;7362;50.956;4.184;2022-10-16T17:56:37;17.00;99.90
14551;DHT22;7362;50.956;4.184;2022-10-16T17:59:03;17.00;99.90